createdAt,value
2022-12-14T00:02:26.227Z,24.6
2022-12-14T00:05:28.143Z,21.5
2022-12-14T00:08:30.214Z,25
2022-12-14T00:11:32.069Z,26
2022-12-14T00:14:34.059Z,29.3
2022-12-14T00:17:36.007Z,31.4
2022-12-14T00:20:37.965Z,27.1
2022-12-14T00:23:39.917Z,26.4
2022-12-14T00:26:41.871Z,27
2022-12-14T00:29:43.858Z,27.1
2022-12-14T00:32:45.791Z,23.3
2022-12-14T00:35:47.749Z,24.8
2022-12-14T00:38:49.705Z,29.5
2022-12-14T00:41:51.697Z,23.1
2022-12-14T00:44:53.653Z,24.4
2022-12-14T00:47:55.611Z,21.5
2022-12-14T00:50:57.584Z,27.1
2022-12-14T00:53:59.540Z,24.8
2022-12-14T00:57:01.489Z,24
2022-12-14T01:00:03.458Z,23.7
2022-12-14T01:03:05.422Z,28.9
2022-12-14T01:06:07.380Z,21.8
2022-12-14T01:09:09.333Z,20.3
2022-12-14T01:12:11.311Z,17.2
2022-12-14T01:15:13.274Z,18.8
2022-12-14T01:18:15.215Z,20
2022-12-14T01:21:17.180Z,17.9
2022-12-14T01:24:19.149Z,25
2022-12-14T01:27:21.104Z,22
2022-12-14T01:30:23.063Z,24.3
2022-12-14T01:33:25.351Z,21.4
2022-12-14T01:36:27.002Z,18.7
2022-12-14T01:39:28.938Z,18.4
2022-12-14T01:42:30.892Z,16.5
2022-12-14T01:45:32.860Z,21.1
2022-12-14T01:48:34.829Z,21.1
2022-12-14T01:51:36.781Z,23.7
2022-12-14T01:54:38.752Z,17.8
2022-12-14T01:57:40.711Z,20.1
2022-12-14T02:00:42.683Z,19.5
2022-12-14T02:03:44.693Z,19.2
2022-12-14T02:06:46.591Z,16.2
2022-12-14T02:09:48.563Z,16.5
2022-12-14T02:12:50.526Z,16.7
2022-12-14T02:15:52.586Z,16.3
2022-12-14T02:18:54.442Z,16.2
2022-12-14T02:21:56.395Z,12.5
2022-12-14T02:24:58.360Z,12.8
2022-12-14T02:28:00.312Z,14.7
2022-12-14T02:31:02.341Z,13.1
2022-12-14T02:34:04.220Z,12.6
2022-12-14T02:37:06.196Z,14.5
2022-12-14T02:40:08.360Z,13.9
2022-12-14T02:43:10.134Z,16.3
2022-12-14T02:46:12.153Z,19.5
2022-12-14T02:49:14.048Z,20.2
2022-12-14T02:52:15.989Z,17.9
2022-12-14T02:55:17.964Z,22.4
2022-12-14T02:58:19.926Z,17.7
2022-12-14T03:01:22.093Z,19.7
2022-12-14T03:04:23.832Z,18.7
2022-12-14T03:07:25.790Z,18.7
2022-12-14T03:10:27.765Z,19.4
2022-12-14T03:13:29.999Z,18.9
2022-12-14T03:16:31.696Z,17.9
2022-12-14T03:19:33.627Z,17.6
2022-12-14T03:22:35.595Z,15.8
2022-12-14T03:25:37.569Z,16.1
2022-12-14T03:28:39.519Z,17.9
2022-12-14T03:31:41.485Z,17.7
2022-12-14T03:34:43.423Z,20.4
2022-12-14T03:37:48.808Z,13.8
2022-12-14T03:40:47.340Z,15.5
2022-12-14T03:43:49.607Z,16.1
2022-12-14T03:46:51.273Z,18
2022-12-14T03:49:53.215Z,15.8
2022-12-14T03:52:55.173Z,12.6
2022-12-14T03:55:57.139Z,16.4
2022-12-14T03:58:59.122Z,16.1
2022-12-14T04:02:01.195Z,19.5
2022-12-14T04:05:03.039Z,13.2
2022-12-14T04:08:04.984Z,12.8
2022-12-14T04:11:06.951Z,15.7
2022-12-14T04:14:08.904Z,16.6
2022-12-14T04:17:10.891Z,17.4
2022-12-14T04:20:12.829Z,14.3
2022-12-14T04:23:14.792Z,16.1
2022-12-14T04:26:16.751Z,11.8
2022-12-14T04:29:18.713Z,16.7
2022-12-14T04:32:20.693Z,16.5
2022-12-14T04:35:22.621Z,16.5
2022-12-14T04:38:24.570Z,16.3
2022-12-14T04:41:26.548Z,16.5
2022-12-14T04:44:28.497Z,14.7
2022-12-14T04:47:30.448Z,14.2
2022-12-14T04:50:32.406Z,16
2022-12-14T04:53:34.358Z,16.7
2022-12-14T04:56:36.323Z,18.3
2022-12-14T04:59:38.483Z,15.7
2022-12-14T05:02:40.324Z,13.6
2022-12-14T05:05:42.200Z,16.1
2022-12-14T05:08:44.161Z,15.5
2022-12-14T05:11:53.478Z,12.1
2022-12-14T05:14:48.091Z,13.9
2022-12-14T05:17:50.038Z,13.5
2022-12-14T05:20:51.993Z,12
2022-12-14T05:23:53.955Z,15.4
2022-12-14T05:26:55.922Z,14.5
2022-12-14T05:29:57.868Z,11
2022-12-14T05:32:59.827Z,15
2022-12-14T05:36:01.786Z,14.3
2022-12-14T05:39:03.739Z,13
2022-12-14T05:42:05.699Z,11.8
2022-12-14T05:45:07.649Z,12.4
2022-12-14T05:48:09.618Z,13.5
2022-12-14T05:51:11.614Z,12.4
2022-12-14T05:54:13.524Z,14
2022-12-14T05:57:15.501Z,10.5
2022-12-14T06:00:17.443Z,13
2022-12-14T06:03:19.404Z,13.2
2022-12-14T06:06:21.363Z,12.1
2022-12-14T06:09:23.326Z,14.4
2022-12-14T06:12:25.280Z,16.1
2022-12-14T06:15:30.772Z,13.1
2022-12-14T06:18:29.206Z,12.8
2022-12-14T06:21:31.163Z,14.9
2022-12-14T06:24:33.114Z,15.9
2022-12-14T06:27:35.077Z,14.1
2022-12-14T06:30:37.039Z,13.6
2022-12-14T06:33:38.997Z,13.6
2022-12-14T06:36:40.945Z,11.9
2022-12-14T06:39:42.890Z,14.8
2022-12-14T06:42:44.848Z,12.6
2022-12-14T06:45:46.808Z,15.1
2022-12-14T06:48:48.764Z,17.4
2022-12-14T06:51:50.728Z,16.2
2022-12-14T06:54:52.680Z,13.5
2022-12-14T06:57:54.648Z,11.2
2022-12-14T07:00:56.603Z,15.8
2022-12-14T07:03:58.556Z,13.6
2022-12-14T07:07:00.514Z,16.3
2022-12-14T07:10:02.483Z,12.8
2022-12-14T07:13:04.492Z,16.7
2022-12-14T07:16:06.412Z,16.3
2022-12-14T07:19:08.396Z,15.1
2022-12-14T07:22:10.323Z,14.6
2022-12-14T07:25:12.291Z,14.5
2022-12-14T07:28:14.251Z,15.3
2022-12-14T07:31:16.255Z,19.9
2022-12-14T07:34:18.202Z,18.2
2022-12-14T07:37:20.357Z,15.9
2022-12-14T07:40:22.131Z,15.6
2022-12-14T07:43:24.207Z,18
2022-12-14T07:46:26.133Z,17.8
2022-12-14T07:49:28.017Z,18.8
2022-12-14T07:52:34.264Z,18.1
2022-12-14T07:55:31.941Z,14.1
2022-12-14T07:58:33.902Z,16
2022-12-14T08:01:35.967Z,15.9
2022-12-14T08:04:37.854Z,16.9
2022-12-14T08:07:39.796Z,16.3
2022-12-14T08:10:41.761Z,18.2
2022-12-14T08:13:43.722Z,15.8
2022-12-14T08:16:45.690Z,14.9
2022-12-14T08:19:47.625Z,16.2
2022-12-14T08:22:49.581Z,14.9
2022-12-14T08:25:51.544Z,16.2
2022-12-14T08:28:53.510Z,16.6
2022-12-14T08:31:55.558Z,15.4
2022-12-14T08:34:57.479Z,16.7
2022-12-14T08:37:59.416Z,15.3
2022-12-14T08:41:01.364Z,16.3
2022-12-14T08:44:03.336Z,16
2022-12-14T08:47:05.427Z,15.3
2022-12-14T08:50:07.261Z,21.8
2022-12-14T08:53:09.221Z,15.1
2022-12-14T08:56:11.182Z,20.4
2022-12-14T08:59:30.186Z,22.2
2022-12-14T09:02:15.166Z,18.9
2022-12-14T09:05:17.077Z,23.2
2022-12-14T09:08:19.050Z,15.7
2022-12-14T09:11:21.026Z,20.7
2022-12-14T09:14:22.980Z,17.9
2022-12-14T09:17:24.948Z,21.9
2022-12-14T09:20:26.908Z,25
2022-12-14T09:23:29.277Z,18.8
2022-12-14T09:26:30.833Z,19.2
2022-12-14T09:29:32.804Z,19.2
2022-12-14T09:32:34.759Z,18.1
2022-12-14T09:35:36.728Z,23
2022-12-14T09:38:38.915Z,17
2022-12-14T09:41:40.653Z,18.4
2022-12-14T09:44:42.624Z,16.2
2022-12-14T09:47:44.581Z,14.3
2022-12-14T09:50:46.531Z,18.1
2022-12-14T09:53:48.473Z,17.3
2022-12-14T09:56:50.452Z,16.1
2022-12-14T09:59:52.402Z,17.2
2022-12-14T10:02:54.494Z,14.8
2022-12-14T10:05:56.371Z,23.1
2022-12-14T10:08:58.323Z,17.3
2022-12-14T10:12:00.296Z,19.2
2022-12-14T10:15:02.306Z,17.9
2022-12-14T10:18:04.199Z,16.1
2022-12-14T10:21:06.159Z,17.4
2022-12-14T10:24:08.135Z,14.5
2022-12-14T10:27:10.089Z,15
2022-12-14T10:30:12.049Z,19
2022-12-14T10:33:14.013Z,16.4
2022-12-14T10:36:15.985Z,20.4
2022-12-14T10:39:17.949Z,23
2022-12-14T10:42:19.915Z,16.5
2022-12-14T10:45:40.997Z,16.5
2022-12-14T10:48:23.845Z,13.3
2022-12-14T10:51:25.812Z,16.6
2022-12-14T10:54:27.772Z,16.2
2022-12-14T10:57:29.722Z,15.2
2022-12-14T11:00:31.691Z,15.9
2022-12-14T11:03:33.691Z,18.4
2022-12-14T11:06:35.599Z,16.7
2022-12-14T11:09:37.569Z,18.1
2022-12-14T11:12:39.508Z,16.2
2022-12-14T11:15:41.496Z,16.4
2022-12-14T11:18:43.498Z,15
2022-12-14T11:21:45.452Z,14.5
2022-12-14T11:24:47.382Z,18.6
2022-12-14T11:27:49.952Z,29.7
2022-12-14T11:30:51.359Z,20.4
2022-12-14T11:33:53.292Z,18.3
2022-12-14T11:36:55.241Z,19.5
2022-12-14T11:39:57.207Z,18.2
2022-12-14T11:42:59.174Z,18.8
2022-12-14T11:46:01.162Z,18.8
2022-12-14T11:49:03.089Z,17.8
2022-12-14T11:52:05.056Z,23.3
2022-12-14T11:55:07.028Z,21.7
2022-12-14T11:58:09.127Z,24.9
2022-12-14T12:01:11.000Z,22.9
2022-12-14T12:04:12.939Z,21.6
2022-12-14T12:07:14.981Z,19
2022-12-14T12:10:16.824Z,20.7
2022-12-14T12:13:18.787Z,20.6
2022-12-14T12:16:20.811Z,18.6
2022-12-14T12:19:22.731Z,18.4
2022-12-14T12:22:24.692Z,19.5
2022-12-14T12:25:29.816Z,20.2
2022-12-14T12:28:28.961Z,18.6
2022-12-14T12:31:30.635Z,20.6
2022-12-14T12:34:32.509Z,22.5
2022-12-14T12:37:34.462Z,21.8
2022-12-14T12:40:36.413Z,21.1
2022-12-14T12:43:38.374Z,16.7
2022-12-14T12:46:48.465Z,23.6
2022-12-14T12:49:42.335Z,21.9
2022-12-14T12:52:44.276Z,19.4
2022-12-14T12:55:46.242Z,17.7
2022-12-14T12:58:52.523Z,17
2022-12-14T13:01:50.260Z,19.5
2022-12-14T13:04:52.744Z,18.5
2022-12-14T13:07:54.109Z,18.3
2022-12-14T13:11:24.360Z,15.3
2022-12-14T13:13:58.058Z,15.8
2022-12-14T13:17:00.002Z,19.6
2022-12-14T13:20:02.090Z,14.2
2022-12-14T13:23:21.590Z,18.6
2022-12-14T13:26:06.009Z,18.3
2022-12-14T13:29:07.974Z,15.8
2022-12-14T13:32:09.933Z,14.5
2022-12-14T13:35:11.902Z,15.2
2022-12-14T13:38:13.876Z,16.1
2022-12-14T13:41:15.871Z,14.7
2022-12-14T13:44:17.835Z,18.3
2022-12-14T13:47:19.803Z,19.2
2022-12-14T13:50:36.469Z,15.5
2022-12-14T13:53:23.891Z,21.8
2022-12-14T13:56:32.566Z,17.6
2022-12-14T13:59:27.867Z,19.4
2022-12-14T14:02:29.902Z,19
2022-12-14T14:05:31.783Z,16.1
2022-12-14T14:08:39.469Z,20.4
2022-12-14T14:11:37.209Z,19.2
2022-12-14T14:14:37.695Z,17.2
2022-12-14T14:17:39.644Z,16.2
2022-12-14T14:20:41.655Z,16.5
2022-12-14T14:23:43.580Z,13.7
2022-12-14T14:26:45.548Z,16.1
2022-12-14T14:29:47.536Z,14.9
2022-12-14T14:32:49.482Z,15.5
2022-12-14T14:35:51.443Z,19.8
2022-12-14T14:38:53.405Z,18.7
2022-12-14T14:41:55.404Z,18.6
2022-12-14T14:44:57.354Z,18.6
2022-12-14T14:47:59.318Z,19
2022-12-14T14:51:01.257Z,15.3
2022-12-14T14:54:03.220Z,21.7
2022-12-14T14:57:05.186Z,18.9
2022-12-14T15:00:07.162Z,16.1
2022-12-14T15:03:09.148Z,22.1
2022-12-14T15:06:11.106Z,22.3
2022-12-14T15:09:13.031Z,21.7
2022-12-14T15:12:15.021Z,21
2022-12-14T15:15:16.951Z,20
2022-12-14T15:18:18.896Z,19.2
2022-12-14T15:21:20.865Z,17.2
2022-12-14T15:24:22.828Z,20.8
2022-12-14T15:27:24.789Z,17.8
2022-12-14T15:30:26.735Z,20.5
2022-12-14T15:33:29.019Z,21.1
2022-12-14T15:36:30.757Z,17.3
2022-12-14T15:39:32.769Z,20.4
2022-12-14T15:42:34.635Z,16.9
2022-12-14T15:45:36.613Z,17.5
2022-12-14T15:48:41.668Z,17.1
2022-12-14T15:51:43.666Z,19.2
2022-12-14T15:54:45.671Z,22.7
2022-12-14T15:57:47.618Z,19.1
2022-12-14T16:00:49.712Z,22.5
2022-12-14T16:03:51.542Z,21.5
2022-12-14T16:06:53.525Z,20.5
2022-12-14T16:09:55.478Z,18.5
2022-12-14T16:12:57.441Z,15.2
2022-12-14T16:15:59.411Z,17.3
2022-12-14T16:19:20.656Z,18
2022-12-14T16:22:03.319Z,17.1
2022-12-14T16:25:05.338Z,16.3
2022-12-14T16:28:07.271Z,15.9
2022-12-14T16:31:09.253Z,17.4
2022-12-14T16:34:11.226Z,20.3
2022-12-14T16:37:31.960Z,19.1
2022-12-14T16:40:16.526Z,19.2
2022-12-14T16:43:17.122Z,20
2022-12-14T16:46:19.283Z,17.7
2022-12-14T16:49:21.071Z,21.5
2022-12-14T16:52:23.016Z,16.6
2022-12-14T16:55:24.973Z,18.5
2022-12-14T16:58:26.937Z,19.5
2022-12-14T17:01:29.071Z,20
2022-12-14T17:04:30.858Z,14.7
2022-12-14T17:07:32.867Z,19.9
2022-12-14T17:10:34.854Z,18.2
2022-12-14T17:13:36.787Z,14.4
2022-12-14T17:16:38.890Z,18.8
2022-12-14T17:19:40.857Z,15.4
2022-12-14T17:22:42.778Z,15.7
2022-12-14T17:25:47.821Z,16
2022-12-14T17:28:46.699Z,13.9
2022-12-14T17:31:49.733Z,20.3
2022-12-14T17:34:50.618Z,17.7
2022-12-14T17:37:52.581Z,17.7
2022-12-14T17:40:54.555Z,18.9
2022-12-14T17:43:57.089Z,21.9
2022-12-14T17:46:58.478Z,21.3
2022-12-14T17:50:00.492Z,20.3
2022-12-14T17:53:02.423Z,24
2022-12-14T17:56:04.390Z,27
2022-12-14T17:59:06.350Z,27.8
2022-12-14T18:02:08.448Z,23.6
2022-12-14T18:05:10.275Z,29.4
2022-12-14T18:08:12.211Z,24.8
2022-12-14T18:11:14.246Z,26.6
2022-12-14T18:14:16.173Z,29.2
2022-12-14T18:17:18.130Z,25
2022-12-14T18:20:20.102Z,23.2
2022-12-14T18:23:22.048Z,25.5
2022-12-14T18:26:24.002Z,24.5
2022-12-14T18:29:25.974Z,24.9
2022-12-14T18:32:27.989Z,24.4
2022-12-14T18:35:30.100Z,20.6
2022-12-14T18:38:32.057Z,27.8
2022-12-14T18:41:37.114Z,18.7
2022-12-14T18:44:39.051Z,27.1
2022-12-14T18:47:42.614Z,26.3
2022-12-14T18:50:43.311Z,24.1
2022-12-14T18:53:47.993Z,24.1
2022-12-14T18:56:50.011Z,24.4
2022-12-14T18:59:51.961Z,31.5
2022-12-14T19:02:56.972Z,22.7
2022-12-14T19:06:20.342Z,23.9
2022-12-14T19:09:03.564Z,23.1
2022-12-14T19:12:05.614Z,24.2
2022-12-14T19:15:07.566Z,23.5
2022-12-14T19:18:09.538Z,26.3
2022-12-14T19:21:11.549Z,24.4
2022-12-14T19:24:13.542Z,24.5
2022-12-14T19:27:15.740Z,21.9
2022-12-14T19:30:20.781Z,29.3
2022-12-14T19:33:22.744Z,27.8
2022-12-14T19:36:24.696Z,32.1
2022-12-14T19:39:26.660Z,29
2022-12-14T19:42:28.616Z,26.3
2022-12-14T19:45:30.582Z,25.6
2022-12-14T19:48:32.553Z,24.3
2022-12-14T19:51:34.508Z,28.5
2022-12-14T19:54:36.483Z,27.2
2022-12-14T19:57:38.460Z,30.2
2022-12-14T20:00:40.421Z,34.6
2022-12-14T20:03:42.522Z,28.1
2022-12-14T20:06:44.323Z,29.3
2022-12-14T20:09:46.279Z,30.7
2022-12-14T20:12:48.240Z,29
2022-12-14T20:15:50.271Z,27.5
2022-12-14T20:18:52.146Z,25.6
2022-12-14T20:21:54.127Z,29.2
2022-12-14T20:24:56.076Z,31.5
2022-12-14T20:27:58.033Z,34.3
2022-12-14T20:31:00.047Z,27.6
2022-12-14T20:34:01.939Z,33.3
2022-12-14T20:37:03.897Z,35.3
2022-12-14T20:40:05.880Z,31.8
2022-12-14T20:43:07.851Z,29.5
2022-12-14T20:46:10.049Z,28.5
2022-12-14T20:49:11.759Z,22.5
2022-12-14T20:52:13.712Z,30
2022-12-14T20:55:15.667Z,31.4
2022-12-14T20:58:17.631Z,28.4
2022-12-14T21:01:19.705Z,28.7
2022-12-14T21:04:21.571Z,29.7
2022-12-14T21:07:26.232Z,26
2022-12-14T21:10:25.474Z,32.7
2022-12-14T21:13:27.660Z,37.7
2022-12-14T21:16:29.455Z,35.9
2022-12-14T21:19:31.329Z,36.8
2022-12-14T21:22:33.286Z,27.3
2022-12-14T21:25:35.271Z,29.2
2022-12-14T21:28:37.228Z,23.9
2022-12-14T21:31:39.296Z,35.7
2022-12-14T21:34:41.173Z,38.6
2022-12-14T21:37:43.140Z,34.6
2022-12-14T21:40:45.090Z,35.4
2022-12-14T21:43:47.057Z,32.5
2022-12-14T21:46:49.038Z,34.1
2022-12-14T21:49:50.985Z,45.1
2022-12-14T21:52:52.943Z,39
2022-12-14T21:55:54.917Z,30
2022-12-14T21:58:56.875Z,34.6
2022-12-14T22:01:58.960Z,33.7
2022-12-14T22:05:00.814Z,28.7
2022-12-14T22:08:02.779Z,30.4
2022-12-14T22:11:04.741Z,25.5
2022-12-14T22:14:06.702Z,34.2
2022-12-14T22:17:08.676Z,21.6
2022-12-14T22:20:10.652Z,37.4
2022-12-14T22:23:12.610Z,38.1
2022-12-14T22:26:14.575Z,27.5
2022-12-14T22:29:16.537Z,31.8
2022-12-14T22:32:18.573Z,28.7
2022-12-14T22:35:20.455Z,33.1
2022-12-14T22:38:22.405Z,34.2
2022-12-14T22:41:24.362Z,27.4
2022-12-14T22:44:26.315Z,25.8
2022-12-14T22:47:28.287Z,34.1
2022-12-14T22:50:30.239Z,35.2
2022-12-14T22:53:32.495Z,28.4
2022-12-14T22:56:34.144Z,28.1
2022-12-14T22:59:36.112Z,36.9
2022-12-14T23:02:38.199Z,34.3
2022-12-14T23:05:40.038Z,40.9
2022-12-14T23:08:41.991Z,33.2
2022-12-14T23:11:43.956Z,37.3
2022-12-14T23:14:45.931Z,30.7
2022-12-14T23:17:47.882Z,36
2022-12-14T23:20:49.860Z,34.3
2022-12-14T23:23:51.805Z,31.8
2022-12-14T23:26:53.768Z,34.4
2022-12-14T23:29:55.723Z,35.7
2022-12-14T23:32:57.696Z,45.4
2022-12-14T23:35:59.658Z,42.5
2022-12-14T23:39:01.618Z,39.8
2022-12-14T23:42:03.600Z,48.6
2022-12-14T23:45:05.569Z,42.6
2022-12-14T23:48:07.515Z,46.6
2022-12-14T23:51:09.487Z,44.8
2022-12-14T23:54:11.441Z,50.1
2022-12-14T23:57:13.395Z,37.1
